Time;durP1;ratioP1;P1;durP2;ratioP2;P2;SDS_P1;SDS_P2;PMS_P1;PMS_P2;Temp;Humidity;BMP_temperature;BMP_pressure;BME280_temperature;BME280_humidity;BME280_pressure;Samples;Min_cycle;Max_cycle;Signal;HPM_P1;HPM_P2
2023/09/12 00:01:35;;;;;;;5.50;2.47;;;;;;;23.13;62.01;99727.41;5052173;28;20033;-82
2023/09/12 00:04:01;;;;;;;9.70;2.40;;;;;;;23.16;62.17;99727.22;5051947;28;20029;-81
2023/09/12 00:06:26;;;;;;;6.73;2.43;;;;;;;23.14;62.12;99729.13;5052051;28;20040;-82
2023/09/12 00:08:52;;;;;;;5.28;2.17;;;;;;;23.07;62.41;99722.44;5052264;28;20052;-82
2023/09/12 00:11:18;;;;;;;4.87;2.10;;;;;;;23.04;62.51;99728.03;5052100;28;20654;-82
2023/09/12 00:13:44;;;;;;;6.72;2.20;;;;;;;23.05;62.55;99727.06;5052210;28;20025;-82
2023/09/12 00:16:10;;;;;;;5.25;1.98;;;;;;;23.06;62.72;99736.84;5052499;28;20040;-82
2023/09/12 00:18:39;;;;;;;7.78;2.30;;;;;;;23.08;62.35;99734.91;5051804;28;20429;-82
2023/09/12 00:21:04;;;;;;;8.17;2.10;;;;;;;23.13;62.41;99742.66;5051903;28;20044;-83
2023/09/12 00:23:30;;;;;;;7.77;2.30;;;;;;;23.11;62.56;99753.50;5051580;28;20029;-82
2023/09/12 00:25:57;;;;;;;6.07;2.70;;;;;;;23.09;62.83;99758.13;5057748;28;20273;-83
2023/09/12 00:28:22;;;;;;;6.80;1.90;;;;;;;23.13;62.82;99761.47;5071019;28;20037;-83
2023/09/12 00:30:48;;;;;;;6.37;2.20;;;;;;;23.17;62.64;99765.69;5071625;28;20051;-83
2023/09/12 00:33:13;;;;;;;9.70;2.50;;;;;;;23.20;62.88;99766.34;5068904;28;20032;-83
2023/09/12 00:35:38;;;;;;;6.20;2.10;;;;;;;23.20;62.75;99758.28;5051904;28;20059;-83
2023/09/12 00:38:04;;;;;;;6.67;2.50;;;;;;;23.14;62.81;99755.13;5051518;28;20037;-82
2023/09/12 00:40:29;;;;;;;6.17;2.43;;;;;;;23.07;63.22;99754.69;5052362;28;20029;-82
2023/09/12 00:42:55;;;;;;;6.37;2.40;;;;;;;23.00;63.40;99762.25;5047764;28;20022;-82
2023/09/12 00:45:21;;;;;;;6.30;2.30;;;;;;;22.93;63.92;99755.56;5051401;28;20112;-83
2023/09/12 00:47:47;;;;;;;6.77;2.40;;;;;;;22.88;64.16;99761.22;5051553;28;20064;-83
2023/09/12 00:50:14;;;;;;;8.00;2.35;;;;;;;22.88;63.77;99761.22;5051664;28;20071;-83
2023/09/12 00:52:41;;;;;;;5.65;2.20;;;;;;;22.90;64.09;99759.31;5051541;28;20281;-83
2023/09/12 00:55:07;;;;;;;7.45;2.35;;;;;;;22.96;64.03;99749.13;5051610;28;20086;-83
2023/09/12 00:57:34;;;;;;;7.57;2.30;;;;;;;23.01;64.10;99736.25;5070901;28;20028;-83
2023/09/12 01:00:10;;;;;;;6.32;2.30;;;;;;;23.02;64.21;99740.66;5071112;28;20024;-83
2023/09/12 01:02:37;;;;;;;5.60;2.35;;;;;;;23.02;64.10;99720.06;5070665;28;20020;-83
2023/09/12 01:05:02;;;;;;;7.65;2.63;;;;;;;22.98;64.32;99717.66;5071183;28;20029;-83
2023/09/12 01:07:28;;;;;;;4.77;2.10;;;;;;;22.98;64.42;99712.28;5071437;28;20529;-83
2023/09/12 01:09:53;;;;;;;6.30;2.33;;;;;;;23.01;64.27;99722.81;5070883;28;20036;-83
2023/09/12 01:12:19;;;;;;;7.40;2.50;;;;;;;23.04;64.19;99722.66;5071012;28;20024;-83
2023/09/12 01:14:45;;;;;;;6.07;2.00;;;;;;;23.08;64.13;99729.56;5070833;28;20040;-83
2023/09/12 01:17:10;;;;;;;7.13;2.17;;;;;;;23.13;64.06;99731.91;5070462;28;20029;-84
2023/09/12 01:19:35;;;;;;;7.68;2.50;;;;;;;23.13;63.96;99734.59;5062921;28;20029;-83
2023/09/12 01:22:21;;;;;;;7.20;2.47;;;;;;;23.04;64.67;99736.09;5051016;28;20160;-84
2023/09/12 01:24:52;;;;;;;6.95;2.30;;;;;;;22.98;64.75;99740.03;5050795;28;20404;-83
2023/09/12 01:27:25;;;;;;;10.00;2.50;;;;;;;22.96;64.60;99743.75;5050751;28;20136;-84
2023/09/12 01:29:56;;;;;;;7.72;2.70;;;;;;;22.90;65.02;99745.00;5033520;28;20094;-84
2023/09/12 01:32:21;;;;;;;7.72;2.70;;;;;;;22.90;64.94;99748.56;5050378;28;20500;-83
2023/09/12 01:34:47;;;;;;;5.67;2.63;;;;;;;22.92;64.74;99751.16;5032556;28;20257;-84
2023/09/12 01:37:12;;;;;;;8.93;2.92;;;;;;;22.90;64.86;99774.53;5054630;28;20059;-83
2023/09/12 01:39:38;;;;;;;7.07;2.67;;;;;;;22.84;65.43;99781.19;5069182;28;20137;-84
2023/09/12 01:42:05;;;;;;;7.63;2.73;;;;;;;22.77;65.43;99777.13;5070582;28;20032;-84
2023/09/12 01:44:32;;;;;;;7.05;2.30;;;;;;;22.71;65.38;99790.94;5051478;28;20084;-85
2023/09/12 01:47:02;;;;;;;8.63;2.67;;;;;;;22.65;65.38;99793.06;5050247;28;20029;-83
2023/09/12 01:49:29;;;;;;;7.40;2.65;;;;;;;22.63;65.50;99800.34;5050205;28;20036;-85
2023/09/12 01:51:55;;;;;;;6.67;2.70;;;;;;;22.59;65.22;99792.56;5050097;28;20021;-83
2023/09/12 01:54:22;;;;;;;7.10;2.83;;;;;;;22.49;65.61;99781.53;5050033;28;20399;-82
2023/09/12 01:56:48;;;;;;;9.80;3.15;;;;;;;22.33;66.29;99787.84;5044983;28;20020;-81
2023/09/12 01:59:13;;;;;;;7.50;3.30;;;;;;;22.18;66.70;99789.59;5069890;28;20617;-81
2023/09/12 02:01:39;;;;;;;8.38;3.47;;;;;;;22.04;67.13;99795.81;5069931;28;20032;-81
2023/09/12 02:04:08;;;;;;;8.97;3.37;;;;;;;21.96;67.94;99805.28;5069985;28;20029;-81
2023/09/12 02:06:37;;;;;;;9.88;3.80;;;;;;;21.89;68.54;99805.63;5069936;28;20032;-82
2023/09/12 02:09:02;;;;;;;12.02;3.95;;;;;;;21.79;68.67;99799.94;5069850;28;20031;-81
2023/09/12 02:11:27;;;;;;;7.63;3.43;;;;;;;21.73;69.08;99786.91;5070086;28;20025;-81
2023/09/12 02:13:53;;;;;;;8.87;3.60;;;;;;;21.77;68.80;99776.88;5069650;28;20472;-81
2023/09/12 02:16:18;;;;;;;8.93;3.53;;;;;;;21.81;68.64;99770.38;5069671;28;20039;-82
2023/09/12 02:18:43;;;;;;;8.57;3.83;;;;;;;21.84;68.75;99761.31;5069123;28;20107;-82
2023/09/12 02:21:09;;;;;;;7.43;3.45;;;;;;;21.88;68.74;99757.47;5049576;28;20035;-82
2023/09/12 02:23:34;;;;;;;7.73;3.77;;;;;;;21.90;68.47;99752.88;5031887;28;20131;-82
2023/09/12 02:26:00;;;;;;;8.60;3.63;;;;;;;21.89;68.51;99752.00;5050650;28;20080;-82
2023/09/12 02:28:25;;;;;;;9.90;3.80;;;;;;;21.91;68.67;99749.25;5049711;28;20300;-82
2023/09/12 02:30:50;;;;;;;9.27;3.93;;;;;;;21.93;68.77;99747.34;5046057;28;20404;-81
2023/09/12 02:33:16;;;;;;;9.55;3.80;;;;;;;21.97;68.44;99737.31;5072504;28;20024;-82
2023/09/12 02:35:41;;;;;;;10.83;3.57;;;;;;;21.97;68.68;99743.50;5089570;28;20115;-82
2023/09/12 02:38:07;;;;;;;8.17;3.33;;;;;;;21.98;68.55;99739.03;5089733;28;20036;-82
2023/09/12 02:40:32;;;;;;;8.73;3.27;;;;;;;22.03;68.65;99739.59;5090004;28;20028;-82
2023/09/12 02:42:57;;;;;;;8.47;3.70;;;;;;;22.09;68.22;99731.19;5084076;28;20029;-82
2023/09/12 02:45:23;;;;;;;8.23;3.37;;;;;;;22.14;68.02;99722.88;5069694;28;20793;-82
2023/09/12 02:47:48;;;;;;;8.90;3.73;;;;;;;22.13;67.98;99722.00;5069306;28;20054;-82
2023/09/12 02:50:14;;;;;;;6.77;3.37;;;;;;;22.14;68.07;99720.19;5069126;28;20067;-82
2023/09/12 02:52:39;;;;;;;9.13;3.67;;;;;;;22.16;68.07;99719.13;5069806;28;20480;-82
2023/09/12 02:55:05;;;;;;;10.50;3.70;;;;;;;22.16;68.02;99710.22;5069477;28;20103;-82
2023/09/12 02:57:30;;;;;;;10.10;3.83;;;;;;;22.13;68.09;99715.78;5088459;28;20351;-82
2023/09/12 02:59:55;;;;;;;8.77;3.73;;;;;;;22.07;68.15;99714.34;5089704;28;20099;-82
2023/09/12 03:02:21;;;;;;;9.20;3.63;;;;;;;22.00;68.31;99716.50;5089548;28;20308;-82
2023/09/12 03:04:46;;;;;;;8.37;3.43;;;;;;;21.96;68.78;99709.63;5089470;28;20093;-82
2023/09/12 03:07:12;;;;;;;9.30;3.67;;;;;;;22.00;68.30;99699.59;5089271;28;20107;-82
2023/09/12 03:09:38;;;;;;;8.70;3.63;;;;;;;22.02;68.66;99697.66;5089505;28;20028;-82
2023/09/12 03:12:04;;;;;;;8.75;4.22;;;;;;;22.02;68.39;99689.63;5089333;28;20171;-82
2023/09/12 03:14:30;;;;;;;7.57;3.92;;;;;;;21.99;68.50;99681.78;5089318;28;20069;-82
2023/09/12 03:16:55;;;;;;;9.00;3.90;;;;;;;21.92;68.72;99676.75;5089259;28;20500;-82
2023/09/12 03:19:21;;;;;;;8.80;3.70;;;;;;;21.89;68.80;99682.31;5083341;28;20024;-82
2023/09/12 03:21:46;;;;;;;8.83;3.97;;;;;;;21.85;69.13;99687.97;5070151;28;20036;-82
2023/09/12 03:24:12;;;;;;;10.60;3.50;;;;;;;21.80;69.50;99693.59;5069302;28;20431;-82
2023/09/12 03:26:37;;;;;;;8.90;3.87;;;;;;;21.76;69.26;99692.06;5067323;28;20021;-83
2023/09/12 03:29:04;;;;;;;8.82;3.95;;;;;;;21.83;69.45;99687.22;5069142;28;20025;-82
2023/09/12 03:31:29;;;;;;;7.93;3.83;;;;;;;21.82;69.05;99686.34;5073825;28;20547;-82
2023/09/12 03:33:54;;;;;;;9.00;3.85;;;;;;;21.83;69.46;99692.56;5068800;28;20071;-82
2023/09/12 03:36:21;;;;;;;8.20;3.60;;;;;;;21.88;68.90;99695.84;5071303;28;20036;-82
2023/09/12 03:38:46;;;;;;;9.48;3.80;;;;;;;21.90;69.11;99699.28;5070667;28;20107;-82
2023/09/12 03:41:11;;;;;;;7.43;3.70;;;;;;;21.88;69.12;99701.19;5068875;28;20104;-82
2023/09/12 03:43:37;;;;;;;7.93;3.67;;;;;;;21.86;69.10;99697.75;5057206;28;20063;-82
2023/09/12 03:46:03;;;;;;;10.88;3.58;;;;;;;21.85;69.12;99696.88;5048687;28;20219;-82
2023/09/12 03:48:30;;;;;;;9.70;3.90;;;;;;;21.85;69.40;99701.38;5048621;28;20036;-82
2023/09/12 03:50:56;;;;;;;7.93;3.63;;;;;;;21.85;69.60;99704.91;5048599;28;20036;-82
2023/09/12 03:53:21;;;;;;;8.40;3.70;;;;;;;21.86;69.21;99705.78;5048897;28;20025;-82
2023/09/12 03:55:47;;;;;;;7.13;3.60;;;;;;;21.86;69.69;99705.78;5053535;28;20029;-82
2023/09/12 03:58:12;;;;;;;9.30;4.30;;;;;;;21.78;69.92;99714.28;5068668;28;20283;-82
2023/09/12 04:00:37;;;;;;;11.43;3.93;;;;;;;21.69;70.31;99717.50;5068760;28;20024;-82
2023/09/12 04:03:03;;;;;;;9.03;4.37;;;;;;;21.62;70.46;99717.84;5069802;28;20357;-82
2023/09/12 04:05:28;;;;;;;9.27;4.25;;;;;;;21.61;70.16;99725.97;5053978;28;20031;-82
2023/09/12 04:07:54;;;;;;;8.90;4.70;;;;;;;21.54;70.67;99724.59;5072310;28;20032;-82
2023/09/12 04:10:22;;;;;;;10.83;4.93;;;;;;;21.46;71.36;99733.94;5072152;28;20025;-82
2023/09/12 04:12:48;;;;;;;8.82;4.32;;;;;;;21.38;71.78;99738.91;5072117;28;20032;-82
2023/09/12 04:15:13;;;;;;;8.50;4.27;;;;;;;21.31;71.92;99737.50;5072361;28;20107;-82
2023/09/12 04:17:39;;;;;;;11.80;5.20;;;;;;;21.19;72.60;99739.06;5071859;28;20484;-82
2023/09/12 04:20:05;;;;;;;9.63;4.60;;;;;;;21.16;72.50;99729.41;5066026;28;20172;-82
2023/09/12 04:22:30;;;;;;;9.70;4.63;;;;;;;21.13;72.65;99734.94;5071746;28;20461;-82
2023/09/12 04:24:56;;;;;;;7.10;3.90;;;;;;;21.12;72.26;99729.66;5071732;28;20072;-82
2023/09/12 04:27:21;;;;;;;9.90;4.70;;;;;;;21.11;72.47;99733.28;5069741;28;20125;-82
2023/09/12 04:29:46;;;;;;;12.60;4.10;;;;;;;21.07;72.65;99737.94;5071711;28;20423;-82
2023/09/12 04:32:12;;;;;;;11.95;4.47;;;;;;;21.06;72.43;99738.91;5071853;28;20048;-82
2023/09/12 04:34:37;;;;;;;8.63;3.80;;;;;;;;;;5071858;28;20494;-82
2023/09/12 04:37:03;;;;;;;8.87;3.90;;;;;;;21.15;72.34;99741.06;5071668;28;20052;-82
2023/09/12 04:39:29;;;;;;;9.00;3.90;;;;;;;21.20;72.26;99732.75;5071828;28;20373;-82
2023/09/12 04:41:55;;;;;;;8.00;4.10;;;;;;;21.25;72.11;99730.69;5071872;28;20031;-82
2023/09/12 04:44:20;;;;;;;7.37;3.70;;;;;;;21.25;71.79;99736.06;5054367;28;20028;-82
2023/09/12 04:46:46;;;;;;;9.43;4.00;;;;;;;21.23;72.16;99730.78;5033761;28;20028;-82
2023/09/12 04:49:11;;;;;;;10.43;3.40;;;;;;;21.26;71.68;99736.91;5052515;28;20055;-82
2023/09/12 04:51:37;;;;;;;8.93;3.83;;;;;;;21.26;71.88;99735.09;5051732;28;20483;-82
2023/09/12 04:54:02;;;;;;;7.88;3.90;;;;;;;21.29;71.54;99742.09;5051564;28;20124;-82
2023/09/12 04:56:28;;;;;;;9.03;3.90;;;;;;;21.33;71.53;99740.94;5061907;28;20514;-82
2023/09/12 04:58:53;;;;;;;9.20;3.77;;;;;;;21.34;71.59;99737.31;5071301;28;20035;-82
2023/09/12 05:01:19;;;;;;;9.47;3.87;;;;;;;21.36;71.25;99755.03;5070952;28;20481;-83
2023/09/12 05:03:44;;;;;;;8.55;4.13;;;;;;;21.39;71.42;99750.44;5071128;28;20329;-82
2023/09/12 05:06:10;;;;;;;10.67;4.20;;;;;;;21.43;71.25;99754.69;5071478;28;20175;-82
2023/09/12 05:08:36;;;;;;;8.65;3.88;;;;;;;21.48;70.80;99752.63;5071190;28;20112;-82
2023/09/12 05:11:02;;;;;;;11.60;4.20;;;;;;;21.52;70.57;99746.97;5071282;28;20473;-82
2023/09/12 05:13:28;;;;;;;8.20;3.67;;;;;;;21.57;70.62;99746.72;5070795;28;20020;-82
2023/09/12 05:15:53;;;;;;;9.68;3.85;;;;;;;21.61;70.50;99736.69;5056251;28;20082;-82
2023/09/12 05:18:19;;;;;;;7.73;3.70;;;;;;;21.65;70.50;99743.63;5050381;28;20036;-82
2023/09/12 05:20:44;;;;;;;8.47;3.80;;;;;;;21.70;70.14;99746.00;5067982;28;20028;-82
2023/09/12 05:23:10;;;;;;;9.27;3.80;;;;;;;21.70;69.97;99746.88;5070644;28;20063;-82
2023/09/12 05:25:36;;;;;;;9.27;3.78;;;;;;;21.72;70.17;99744.13;5067167;28;20021;-82
2023/09/12 05:28:01;;;;;;;7.23;3.63;;;;;;;21.71;69.74;99743.25;5051214;28;20044;-82
2023/09/12 05:30:26;;;;;;;9.40;3.85;;;;;;;21.71;70.18;99740.56;5050850;28;20140;-82
2023/09/12 05:32:52;;;;;;;10.13;3.30;;;;;;;21.71;70.12;99735.22;5050882;28;20033;-82
2023/09/12 05:35:18;;;;;;;12.10;3.70;;;;;;;21.73;70.20;99740.50;5051185;28;20106;-82
2023/09/12 05:37:43;;;;;;;8.10;3.20;;;;;;;21.73;70.02;99746.69;5050736;28;20115;-83
2023/09/12 05:40:10;;;;;;;8.43;3.90;;;;;;;21.72;69.81;99750.34;5050936;28;20032;-83
2023/09/12 05:42:35;;;;;;;8.87;3.53;;;;;;;21.72;69.94;99744.97;5053447;28;20714;-83
2023/09/12 05:45:01;;;;;;;10.20;3.55;;;;;;;21.72;69.52;99753.03;5070635;28;20114;-82
2023/09/12 05:47:27;;;;;;;8.93;3.73;;;;;;;21.72;69.83;99758.38;5070286;28;20446;-82
2023/09/12 05:49:52;;;;;;;8.68;3.50;;;;;;;21.72;69.92;99762.88;5070326;28;20037;-83
2023/09/12 05:52:17;;;;;;;9.10;3.93;;;;;;;21.70;69.81;99760.28;5067002;28;20580;-83
2023/09/12 05:54:43;;;;;;;7.13;3.50;;;;;;;21.69;69.79;99755.88;5070231;28;20472;-82
2023/09/12 05:57:10;;;;;;;10.50;3.70;;;;;;;21.71;69.89;99759.34;5058025;28;20086;-80
2023/09/12 05:59:38;;;;;;;9.40;4.05;;;;;;;21.74;69.68;99759.16;5054359;28;20118;-82
2023/09/12 06:02:05;;;;;;;8.98;4.10;;;;;;;21.77;69.45;99748.25;5050122;28;20120;-83
2023/09/12 06:04:31;;;;;;;8.75;3.50;;;;;;;21.82;69.32;99741.75;5050167;28;20033;-83
2023/09/12 06:06:57;;;;;;;10.80;4.27;;;;;;;21.86;69.04;99746.00;5050277;28;20074;-82
2023/09/12 06:09:22;;;;;;;8.40;3.60;;;;;;;21.88;69.04;99733.34;5050252;28;20061;-82
2023/09/12 06:11:47;;;;;;;9.47;4.50;;;;;;;21.91;69.22;99738.53;5050845;28;20279;-82
2023/09/12 06:14:13;;;;;;;7.87;4.43;;;;;;;21.91;69.43;99741.22;5051207;28;20055;-81
2023/09/12 06:16:38;;;;;;;8.20;4.30;;;;;;;21.97;69.52;99746.19;5058584;28;20120;-81
2023/09/12 06:19:03;;;;;;;9.20;4.33;;;;;;;22.09;68.85;99739.22;5058032;28;20025;-81
2023/09/12 06:21:29;;;;;;;8.97;4.27;;;;;;;22.18;68.60;99732.44;5052491;28;20454;-81
2023/09/12 06:24:15;;;;;;;8.60;3.60;;;;;;;22.28;69.02;99752.38;5050106;28;20091;-83
2023/09/12 06:26:41;;;;;;;8.67;3.83;;;;;;;22.40;68.13;99764.16;5049114;28;20029;-82
2023/09/12 06:29:06;;;;;;;10.15;3.92;;;;;;;22.60;67.64;99768.34;5049758;28;20148;-82
2023/09/12 06:31:32;;;;;;;10.07;4.10;;;;;;;22.71;67.37;99774.84;5049541;28;20049;-83
2023/09/12 06:33:57;;;;;;;10.32;3.97;;;;;;;22.72;67.17;99769.41;5049682;28;20057;-81
2023/09/12 06:36:24;;;;;;;9.57;3.53;;;;;;;22.74;67.12;99769.28;5049596;28;20052;-82
2023/09/12 06:38:50;;;;;;;8.73;3.42;;;;;;;22.75;67.24;99771.00;5054045;28;20029;-82
2023/09/12 06:41:19;;;;;;;6.70;3.30;;;;;;;22.74;67.22;99772.84;5049670;28;20450;-83
2023/09/12 06:43:44;;;;;;;9.65;3.92;;;;;;;22.74;67.15;99780.00;5061857;28;20430;-83
2023/09/12 06:46:10;;;;;;;8.70;3.73;;;;;;;22.68;67.46;99769.66;5051474;28;20028;-82
2023/09/12 06:48:35;;;;;;;8.47;3.60;;;;;;;22.67;67.43;99765.25;5069130;28;20444;-82
2023/09/12 06:51:05;;;;;;;11.00;3.75;;;;;;;22.67;67.48;99779.56;5068349;28;20029;-83
2023/09/12 06:53:31;;;;;;;11.27;4.00;;;;;;;22.68;67.75;99777.72;5067543;28;20131;-82
2023/09/12 06:55:57;;;;;;;10.05;3.75;;;;;;;22.68;67.71;99767.00;5062105;28;20120;-83
2023/09/12 06:58:22;;;;;;;8.20;4.27;;;;;;;22.71;67.75;99769.47;5048150;28;20037;-82
2023/09/12 07:00:48;;;;;;;9.15;3.60;;;;;;;22.72;67.59;99765.84;5047793;28;20054;-84
2023/09/12 07:03:14;;;;;;;11.63;3.90;;;;;;;22.73;67.43;99772.94;5047684;28;20069;-83
2023/09/12 07:05:40;;;;;;;9.43;3.55;;;;;;;22.79;67.82;99769.88;5029755;28;20028;-82
2023/09/12 07:08:06;;;;;;;8.73;3.73;;;;;;;22.84;67.42;99769.56;5051751;28;20051;-82
2023/09/12 07:10:32;;;;;;;10.23;3.53;;;;;;;22.91;67.39;99771.75;5047471;28;20469;-84
2023/09/12 07:12:57;;;;;;;10.67;3.97;;;;;;;23.01;67.19;99776.53;5029249;28;20186;-82
2023/09/12 07:15:22;;;;;;;6.57;3.23;;;;;;;23.04;66.90;99782.59;5058324;28;20150;-82
2023/09/12 07:17:48;;;;;;;9.03;4.03;;;;;;;23.11;66.82;99784.88;5069079;28;20290;-81
2023/09/12 07:20:13;;;;;;;9.80;4.20;;;;;;;23.16;66.58;99786.31;5056062;28;20052;-82
2023/09/12 07:22:42;;;;;;;9.63;4.30;;;;;;;23.20;66.61;99798.56;5049804;28;20032;-81
2023/09/12 07:25:09;;;;;;;9.38;4.88;;;;;;;23.19;67.05;99799.53;5049220;28;20033;-82
2023/09/12 07:27:34;;;;;;;11.35;4.40;;;;;;;23.16;67.09;99805.09;5048714;28;20345;-83
2023/09/12 07:30:00;;;;;;;9.73;5.20;;;;;;;23.16;67.09;99806.94;5049503;28;20021;-83
2023/09/12 07:32:25;;;;;;;10.73;4.60;;;;;;;23.16;67.04;99812.31;5049219;28;20032;-82
2023/09/12 07:34:50;;;;;;;11.00;4.33;;;;;;;23.18;67.06;99815.75;5049423;28;20384;-81
2023/09/12 07:37:16;;;;;;;10.57;4.50;;;;;;;23.20;67.28;99820.06;5050662;28;20325;-83
2023/09/12 07:39:41;;;;;;;13.40;5.00;;;;;;;23.15;67.30;99824.88;5052907;28;20064;-83
2023/09/12 07:42:06;;;;;;;10.10;5.03;;;;;;;23.11;67.35;99820.66;5052887;28;20028;-82
2023/09/12 07:44:32;;;;;;;11.23;5.00;;;;;;;23.07;67.72;99819.13;5071385;28;20449;-83
2023/09/12 07:46:57;;;;;;;9.23;4.53;;;;;;;23.06;67.46;99828.16;5072541;28;20035;-83
2023/09/12 07:49:26;;;;;;;10.25;4.47;;;;;;;23.01;67.60;99836.50;5072869;28;20036;-83
2023/09/12 07:51:51;;;;;;;9.80;5.13;;;;;;;22.99;67.71;99848.28;5072538;28;20480;-82
2023/09/12 07:54:17;;;;;;;10.48;5.10;;;;;;;22.94;67.88;99851.28;5072742;28;20036;-83
2023/09/12 07:56:43;;;;;;;9.00;4.70;;;;;;;22.95;67.98;99858.38;5059956;28;20029;-83
2023/09/12 07:59:10;;;;;;;11.27;5.00;;;;;;;22.93;67.82;99871.03;5052332;28;20035;-82
2023/09/12 08:01:35;;;;;;;9.23;5.00;;;;;;;22.93;67.85;99874.56;5052442;28;20025;-82
2023/09/12 08:04:00;;;;;;;10.00;4.70;;;;;;;22.94;67.79;99873.59;5053318;28;20543;-82
2023/09/12 08:06:26;;;;;;;10.40;4.93;;;;;;;22.96;67.94;99878.00;5052214;28;20259;-82
2023/09/12 08:08:52;;;;;;;14.00;4.93;;;;;;;22.92;67.61;99875.50;5052449;28;20029;-83
2023/09/12 08:11:18;;;;;;;12.13;5.10;;;;;;;22.91;67.69;99865.75;5059703;28;20020;-82
2023/09/12 08:13:43;;;;;;;11.10;4.93;;;;;;;22.92;67.96;99859.41;5072526;28;20551;-82
2023/09/12 08:16:08;;;;;;;13.15;5.75;;;;;;;22.94;67.97;99860.16;5072369;28;20060;-82
2023/09/12 08:18:34;;;;;;;11.63;5.03;;;;;;;22.96;67.96;99876.19;5071787;28;20370;-84
2023/09/12 08:20:59;;;;;;;12.60;5.53;;;;;;;22.96;67.97;99878.00;5052660;28;20060;-82
2023/09/12 08:23:25;;;;;;;11.60;5.40;;;;;;;22.96;68.15;99889.63;5052141;28;20044;-83
2023/09/12 08:25:51;;;;;;;11.60;5.73;;;;;;;22.97;68.05;99890.47;5051609;28;20499;-84
2023/09/12 08:28:16;;;;;;;10.13;5.18;;;;;;;22.98;68.01;99884.13;5034330;28;20023;-82
2023/09/12 08:30:44;;;;;;;10.67;5.37;;;;;;;22.93;68.18;99890.66;5051840;28;20033;-83
2023/09/12 08:33:09;;;;;;;10.00;5.38;;;;;;;22.93;68.15;99890.66;5051918;28;20025;-82
2023/09/12 08:35:35;;;;;;;11.13;5.10;;;;;;;22.96;68.12;99894.13;5051886;28;20032;-83
2023/09/12 08:38:00;;;;;;;11.32;4.68;;;;;;;23.00;67.77;99896.53;5051502;28;20036;-83
2023/09/12 08:40:25;;;;;;;14.37;5.67;;;;;;;23.03;67.95;99898.13;5052231;28;20503;-82
2023/09/12 08:42:52;;;;;;;9.97;5.23;;;;;;;23.03;67.71;99903.50;5056448;28;20013;-84
2023/09/12 08:45:19;;;;;;;11.15;4.95;;;;;;;23.03;67.56;99904.38;5071437;28;20056;-84
2023/09/12 08:47:46;;;;;;;9.52;4.95;;;;;;;23.04;67.60;99899.91;5071670;28;20500;-83
2023/09/12 08:50:16;;;;;;;16.20;4.80;;;;;;;23.04;67.50;99894.53;5071196;28;20401;-83
2023/09/12 08:52:45;;;;;;;9.85;4.97;;;;;;;23.07;67.60;99902.38;5072046;28;20021;-82
2023/09/12 08:55:11;;;;;;;12.68;5.25;;;;;;;23.11;67.67;99909.28;5071678;28;20082;-82
2023/09/12 08:57:40;;;;;;;9.63;4.70;;;;;;;23.08;67.46;99910.31;5051513;28;20056;-83
2023/09/12 09:00:08;;;;;;;10.77;4.78;;;;;;;23.11;67.42;99911.09;5052622;28;20033;-82
2023/09/12 09:02:35;;;;;;;10.40;5.10;;;;;;;23.10;67.33;99912.94;5051344;28;20059;-82
2023/09/12 09:05:05;;;;;;;10.75;4.75;;;;;;;23.09;67.32;99908.53;5051599;28;20477;-82
2023/09/12 09:07:39;;;;;;;9.25;4.40;;;;;;;23.05;66.82;99910.53;5058747;28;20040;-83
2023/09/12 09:10:10;;;;;;;11.40;4.45;;;;;;;23.07;66.66;99908.59;5071388;28;20024;-83
2023/09/12 09:12:38;;;;;;;8.82;4.80;;;;;;;23.11;66.62;99905.72;5071569;28;20055;-83
2023/09/12 09:15:27;;;;;;;16.37;4.53;;;;;;;23.09;66.70;99903.16;5071365;28;20060;-83
2023/09/12 09:17:55;;;;;;;9.13;4.13;;;;;;;23.10;66.69;99904.88;5070597;28;20029;-83
2023/09/12 09:20:32;;;;;;;10.05;4.50;;;;;;;23.06;66.22;99920.31;5056989;28;20112;-82
2023/09/12 09:23:04;;;;;;;9.25;4.22;;;;;;;23.04;66.29;99918.69;5051970;28;20032;-83
2023/09/12 09:25:31;;;;;;;8.13;4.05;;;;;;;23.05;66.28;99913.22;5050852;28;20029;-82
2023/09/12 09:27:56;;;;;;;10.13;4.10;;;;;;;23.06;66.01;99908.72;5051115;28;20036;-83
2023/09/12 09:30:42;;;;;;;9.70;4.32;;;;;;;23.07;65.77;99910.44;5050958;28;20465;-84
2023/09/12 09:33:08;;;;;;;8.37;4.03;;;;;;;23.12;65.84;99908.31;5050962;28;20025;-84
2023/09/12 09:35:34;;;;;;;10.20;3.60;;;;;;;23.16;65.70;99912.53;5051000;28;20025;-83
2023/09/12 09:37:59;;;;;;;10.55;3.67;;;;;;;23.19;65.67;99909.66;5050438;28;20025;-83
2023/09/12 09:40:25;;;;;;;6.77;3.37;;;;;;;23.22;65.24;99903.25;5050797;28;20032;-84
2023/09/12 09:42:59;;;;;;;10.63;3.67;;;;;;;23.23;65.06;99900.44;5055573;28;20494;-83
2023/09/12 09:45:25;;;;;;;7.67;3.47;;;;;;;23.27;65.17;99902.97;5071640;28;20259;-82
2023/09/12 09:47:51;;;;;;;11.05;3.65;;;;;;;23.27;64.93;99900.28;5071484;28;20357;-82
2023/09/12 09:50:17;;;;;;;10.15;3.28;;;;;;;23.20;64.69;99899.78;5070638;28;20032;-85
2023/09/12 09:52:43;;;;;;;9.30;3.70;;;;;;;23.19;65.04;99901.59;5070611;28;20020;-86
2023/09/12 09:55:14;;;;;;;7.38;3.42;;;;;;;23.21;64.72;99904.19;5071564;28;20020;-83
2023/09/12 09:57:40;;;;;;;7.43;3.07;;;;;;;23.22;64.71;99904.09;5051562;28;20037;-82
2023/09/12 10:00:08;;;;;;;7.32;3.25;;;;;;;23.21;64.49;99913.09;5049867;28;20028;-83
2023/09/12 10:02:37;;;;;;;6.73;3.27;;;;;;;23.20;64.19;99919.44;5050321;28;20029;-84
2023/09/12 10:05:08;;;;;;;7.78;3.40;;;;;;;23.16;64.50;99925.97;5068404;28;20025;-84
2023/09/12 10:07:37;;;;;;;9.00;3.85;;;;;;;23.11;64.66;99928.09;5070122;28;20037;-83
2023/09/12 10:10:04;;;;;;;7.65;3.70;;;;;;;23.03;64.70;99939.28;5069977;28;20024;-83
2023/09/12 10:12:33;;;;;;;8.10;3.88;;;;;;;22.98;64.66;99937.84;5070055;28;20043;-84
2023/09/12 10:15:01;;;;;;;13.13;4.73;;;;;;;22.93;65.06;99936.31;5070096;28;20177;-85
2023/09/12 10:17:36;;;;;;;10.60;4.93;;;;;;;22.89;64.97;99934.78;5069944;28;20085;-83
2023/09/12 10:20:12;;;;;;;9.15;4.60;;;;;;;22.89;65.73;99933.91;5058455;28;20104;-83
2023/09/12 10:22:43;;;;;;;10.90;4.18;;;;;;;22.89;65.59;99934.78;5050406;28;20052;-82
2023/09/12 10:25:10;;;;;;;10.32;4.60;;;;;;;22.88;65.49;99943.78;5050293;28;20029;-81
2023/09/12 10:27:35;;;;;;;10.73;4.53;;;;;;;22.86;65.89;99940.34;5049988;28;20040;-85
2023/09/12 10:30:02;;;;;;;11.80;3.88;;;;;;;22.89;65.95;99944.63;5049627;28;20397;-83
2023/09/12 10:32:30;;;;;;;8.10;3.60;;;;;;;22.92;65.73;99945.31;5049810;28;20025;-82
2023/09/12 10:34:58;;;;;;;9.73;4.35;;;;;;;22.90;66.01;99938.31;5049968;28;20472;-82
2023/09/12 10:37:25;;;;;;;9.60;4.35;;;;;;;22.91;65.92;99935.53;5049592;28;20040;-83
2023/09/12 10:39:53;;;;;;;8.27;4.05;;;;;;;22.96;65.80;99934.38;5050100;28;20047;-82
2023/09/12 10:42:21;;;;;;;9.73;4.13;;;;;;;23.00;65.90;99938.59;5050682;28;20025;-84
2023/09/12 10:44:46;;;;;;;10.13;3.90;;;;;;;23.07;66.01;99931.94;5069651;28;20036;-83
2023/09/12 10:47:13;;;;;;;9.27;3.88;;;;;;;23.20;65.52;99927.50;5069702;28;20111;-83
2023/09/12 10:49:39;;;;;;;11.63;4.47;;;;;;;23.36;65.02;99931.94;5069992;28;20029;-82
2023/09/12 10:52:05;;;;;;;11.02;4.28;;;;;;;23.46;65.12;99930.41;5065405;28;20025;-82
2023/09/12 10:54:40;;;;;;;8.60;4.20;;;;;;;23.46;64.91;99933.09;5049667;28;20035;-83
2023/09/12 10:57:11;;;;;;;9.85;3.88;;;;;;;23.48;64.29;99939.22;5065174;28;20032;-82
2023/09/12 10:59:57;;;;;;;10.13;4.13;;;;;;;23.47;64.92;99937.50;5051479;28;20029;-85
2023/09/12 11:02:31;;;;;;;8.20;3.77;;;;;;;23.48;64.73;99936.53;5069262;28;20119;-84
2023/09/12 11:05:03;;;;;;;10.57;3.75;;;;;;;23.48;64.96;99944.59;5069608;28;20044;-82
2023/09/12 11:07:32;;;;;;;9.52;3.85;;;;;;;23.53;64.78;99943.47;5069468;28;20078;-82
2023/09/12 11:10:18;;;;;;;8.70;3.67;;;;;;;23.54;64.52;99946.03;5069820;28;20033;-82
2023/09/12 11:12:45;;;;;;;7.45;3.25;;;;;;;23.61;64.32;99943.81;5072047;28;20452;-82
2023/09/12 11:15:10;;;;;;;7.17;3.20;;;;;;;23.64;64.04;99952.56;5073570;28;20476;-85
2023/09/12 11:17:40;;;;;;;6.55;2.95;;;;;;;23.67;63.59;99947.97;5055198;28;20032;-85
2023/09/12 11:20:10;;;;;;;5.28;2.95;;;;;;;23.71;63.27;99947.63;5043279;28;20035;-82
2023/09/12 11:22:39;;;;;;;7.90;3.60;;;;;;;23.78;63.56;99942.72;5053383;28;20047;-82
2023/09/12 11:25:05;;;;;;;6.87;3.47;;;;;;;23.83;63.16;99951.34;5053125;28;20519;-83
2023/09/12 11:27:51;;;;;;;8.30;3.50;;;;;;;23.84;63.22;99944.16;5052780;28;20021;-82
2023/09/12 11:30:30;;;;;;;9.57;3.60;;;;;;;23.87;62.94;99949.34;5045058;28;20562;-83